sensor_id;sensor_type;location;lat;lon;timestamp;pressure;altitude;pressure_sealevel;temperature
68510;BMP180;55512;50.102;19.958;2023-04-01T00:00:25;96974.00;;;10.70
68510;BMP180;55512;50.102;19.958;2023-04-01T00:02:50;96973.60;;;10.70
68510;BMP180;55512;50.102;19.958;2023-04-01T00:05:16;96983.20;;;10.60
68510;BMP180;55512;50.102;19.958;2023-04-01T00:07:42;96979.60;;;10.60
68510;BMP180;55512;50.102;19.958;2023-04-01T00:10:11;96979.20;;;10.52
68510;BMP180;55512;50.102;19.958;2023-04-01T00:12:38;96985.20;;;10.50
68510;BMP180;55512;50.102;19.958;2023-04-01T00:15:07;96969.00;;;10.50
68510;BMP180;55512;50.102;19.958;2023-04-01T00:17:32;96965.00;;;10.46
68510;BMP180;55512;50.102;19.958;2023-04-01T00:19:58;96962.60;;;10.40
68510;BMP180;55512;50.102;19.958;2023-04-01T00:22:24;96965.00;;;10.40
68510;BMP180;55512;50.102;19.958;2023-04-01T00:24:50;96957.00;;;10.40
68510;BMP180;55512;50.102;19.958;2023-04-01T00:27:16;96953.40;;;10.40
68510;BMP180;55512;50.102;19.958;2023-04-01T00:29:46;96954.40;;;10.40
68510;BMP180;55512;50.102;19.958;2023-04-01T00:32:14;96955.80;;;10.30
68510;BMP180;55512;50.102;19.958;2023-04-01T00:34:40;96953.40;;;10.30
68510;BMP180;55512;50.102;19.958;2023-04-01T00:37:07;96947.80;;;10.30
68510;BMP180;55512;50.102;19.958;2023-04-01T00:39:34;96947.80;;;10.30
68510;BMP180;55512;50.102;19.958;2023-04-01T00:42:01;96944.20;;;10.30
68510;BMP180;55512;50.102;19.958;2023-04-01T00:44:31;96945.60;;;10.30
68510;BMP180;55512;50.102;19.958;2023-04-01T00:46:59;96939.00;;;10.30
68510;BMP180;55512;50.102;19.958;2023-04-01T00:49:34;96944.60;;;10.30
68510;BMP180;55512;50.102;19.958;2023-04-01T00:52:04;96940.00;;;10.30
68510;BMP180;55512;50.102;19.958;2023-04-01T00:54:32;96945.40;;;10.30
68510;BMP180;55512;50.102;19.958;2023-04-01T00:57:05;96944.40;;;10.30
68510;BMP180;55512;50.102;19.958;2023-04-01T00:59:38;96942.00;;;10.30
68510;BMP180;55512;50.102;19.958;2023-04-01T01:02:08;96944.00;;;10.30
68510;BMP180;55512;50.102;19.958;2023-04-01T01:04:37;96945.40;;;10.26
68510;BMP180;55512;50.102;19.958;2023-04-01T01:07:32;96945.40;;;10.20
68510;BMP180;55512;50.102;19.958;2023-04-01T01:21:33;96947.60;;;10.10
68510;BMP180;55512;50.102;19.958;2023-04-01T01:24:41;96954.00;;;10.10
68510;BMP180;55512;50.102;19.958;2023-04-01T01:27:11;96954.60;;;10.10
68510;BMP180;55512;50.102;19.958;2023-04-01T01:33:01;96957.80;;;10.10
68510;BMP180;55512;50.102;19.958;2023-04-01T01:35:28;96959.00;;;10.10
68510;BMP180;55512;50.102;19.958;2023-04-01T01:38:14;96958.20;;;10.10
68510;BMP180;55512;50.102;19.958;2023-04-01T01:40:45;96959.00;;;10.10
68510;BMP180;55512;50.102;19.958;2023-04-01T01:43:16;96967.60;;;10.10
68510;BMP180;55512;50.102;19.958;2023-04-01T01:45:51;96968.00;;;10.12
68510;BMP180;55512;50.102;19.958;2023-04-01T01:48:19;96971.60;;;10.10
68510;BMP180;55512;50.102;19.958;2023-04-01T01:50:46;96972.00;;;10.10
68510;BMP180;55512;50.102;19.958;2023-04-01T01:53:13;96965.80;;;10.10
68510;BMP180;55512;50.102;19.958;2023-04-01T01:55:45;96960.40;;;10.10
68510;BMP180;55512;50.102;19.958;2023-04-01T01:58:37;96964.00;;;10.10
68510;BMP180;55512;50.102;19.958;2023-04-01T02:01:12;96966.80;;;10.10
68510;BMP180;55512;50.102;19.958;2023-04-01T02:03:42;96965.80;;;10.00
68510;BMP180;55512;50.102;19.958;2023-04-01T02:06:17;96962.20;;;10.00
68510;BMP180;55512;50.102;19.958;2023-04-01T02:08:52;96959.80;;;10.00
68510;BMP180;55512;50.102;19.958;2023-04-01T02:11:26;96958.20;;;10.00
68510;BMP180;55512;50.102;19.958;2023-04-01T02:14:03;96957.20;;;10.00
68510;BMP180;55512;50.102;19.958;2023-04-01T02:16:45;96956.00;;;10.00
68510;BMP180;55512;50.102;19.958;2023-04-01T02:19:16;96954.00;;;10.00
68510;BMP180;55512;50.102;19.958;2023-04-01T02:21:50;96957.80;;;10.00
68510;BMP180;55512;50.102;19.958;2023-04-01T02:24:20;96963.00;;;10.00
68510;BMP180;55512;50.102;19.958;2023-04-01T02:26:50;96960.60;;;10.00
68510;BMP180;55512;50.102;19.958;2023-04-01T02:29:20;96964.40;;;10.00
68510;BMP180;55512;50.102;19.958;2023-04-01T02:31:48;96966.00;;;10.00
68510;BMP180;55512;50.102;19.958;2023-04-01T02:34:14;96965.00;;;10.00
68510;BMP180;55512;50.102;19.958;2023-04-01T02:36:40;96970.20;;;10.00
68510;BMP180;55512;50.102;19.958;2023-04-01T02:39:07;96973.20;;;10.00
68510;BMP180;55512;50.102;19.958;2023-04-01T02:41:40;96978.80;;;10.00
68510;BMP180;55512;50.102;19.958;2023-04-01T02:44:06;96977.20;;;10.00
68510;BMP180;55512;50.102;19.958;2023-04-01T02:46:32;96983.60;;;10.00
68510;BMP180;55512;50.102;19.958;2023-04-01T02:48:58;96989.00;;;10.00
68510;BMP180;55512;50.102;19.958;2023-04-01T02:51:23;96988.80;;;10.00
68510;BMP180;55512;50.102;19.958;2023-04-01T02:53:48;96991.80;;;10.04
68510;BMP180;55512;50.102;19.958;2023-04-01T02:56:14;96989.80;;;10.00
68510;BMP180;55512;50.102;19.958;2023-04-01T02:58:40;96987.00;;;10.04
68510;BMP180;55512;50.102;19.958;2023-04-01T03:01:05;96984.00;;;10.04
68510;BMP180;55512;50.102;19.958;2023-04-01T03:03:31;96998.20;;;10.10
68510;BMP180;55512;50.102;19.958;2023-04-01T03:05:56;96993.40;;;10.10
68510;BMP180;55512;50.102;19.958;2023-04-01T03:08:24;97003.40;;;10.04
68510;BMP180;55512;50.102;19.958;2023-04-01T03:10:49;97000.40;;;10.02
68510;BMP180;55512;50.102;19.958;2023-04-01T03:13:15;97002.00;;;10.00
68510;BMP180;55512;50.102;19.958;2023-04-01T03:15:41;97004.80;;;10.00
68510;BMP180;55512;50.102;19.958;2023-04-01T03:18:06;97003.40;;;10.00
68510;BMP180;55512;50.102;19.958;2023-04-01T03:20:31;97004.60;;;10.00
68510;BMP180;55512;50.102;19.958;2023-04-01T03:22:57;96998.00;;;9.92
68510;BMP180;55512;50.102;19.958;2023-04-01T03:25:22;96997.80;;;9.90
68510;BMP180;55512;50.102;19.958;2023-04-01T03:27:48;96992.20;;;9.90
68510;BMP180;55512;50.102;19.958;2023-04-01T03:30:13;96989.20;;;9.90
68510;BMP180;55512;50.102;19.958;2023-04-01T03:32:39;96988.40;;;9.90
68510;BMP180;55512;50.102;19.958;2023-04-01T03:35:05;96986.60;;;9.90
68510;BMP180;55512;50.102;19.958;2023-04-01T03:37:30;96990.00;;;9.90
68510;BMP180;55512;50.102;19.958;2023-04-01T03:39:56;96991.20;;;9.90
68510;BMP180;55512;50.102;19.958;2023-04-01T03:42:21;96984.80;;;9.90
68510;BMP180;55512;50.102;19.958;2023-04-01T03:44:47;96987.80;;;9.90
68510;BMP180;55512;50.102;19.958;2023-04-01T03:47:12;96989.00;;;9.90
68510;BMP180;55512;50.102;19.958;2023-04-01T03:49:37;96990.60;;;9.90
68510;BMP180;55512;50.102;19.958;2023-04-01T03:52:03;96996.00;;;9.88
68510;BMP180;55512;50.102;19.958;2023-04-01T03:54:28;96996.20;;;9.90
68510;BMP180;55512;50.102;19.958;2023-04-01T03:56:54;96995.80;;;9.88
68510;BMP180;55512;50.102;19.958;2023-04-01T03:59:20;96993.20;;;9.80
68510;BMP180;55512;50.102;19.958;2023-04-01T04:01:47;96998.80;;;9.80
68510;BMP180;55512;50.102;19.958;2023-04-01T04:04:13;96997.60;;;9.80
68510;BMP180;55512;50.102;19.958;2023-04-01T04:06:40;97000.80;;;9.80
68510;BMP180;55512;50.102;19.958;2023-04-01T04:09:05;97002.80;;;9.80
68510;BMP180;55512;50.102;19.958;2023-04-01T04:11:31;97002.60;;;9.82
68510;BMP180;55512;50.102;19.958;2023-04-01T04:13:58;97010.20;;;9.80
68510;BMP180;55512;50.102;19.958;2023-04-01T04:16:23;97010.40;;;9.90
68510;BMP180;55512;50.102;19.958;2023-04-01T04:18:49;97011.60;;;9.88
68510;BMP180;55512;50.102;19.958;2023-04-01T04:21:16;97012.80;;;9.90
68510;BMP180;55512;50.102;19.958;2023-04-01T04:23:42;97019.80;;;9.90
68510;BMP180;55512;50.102;19.958;2023-04-01T04:26:12;97018.40;;;9.90
68510;BMP180;55512;50.102;19.958;2023-04-01T04:28:39;97018.60;;;9.90
68510;BMP180;55512;50.102;19.958;2023-04-01T04:31:05;97020.60;;;9.90
68510;BMP180;55512;50.102;19.958;2023-04-01T04:33:32;97015.20;;;9.90
68510;BMP180;55512;50.102;19.958;2023-04-01T04:35:59;97017.20;;;10.00
68510;BMP180;55512;50.102;19.958;2023-04-01T04:38:26;97016.20;;;10.00
68510;BMP180;55512;50.102;19.958;2023-04-01T04:40:52;97014.20;;;10.00
68510;BMP180;55512;50.102;19.958;2023-04-01T04:43:18;97022.00;;;10.00
68510;BMP180;55512;50.102;19.958;2023-04-01T04:45:45;97012.80;;;10.00
68510;BMP180;55512;50.102;19.958;2023-04-01T04:48:13;97013.80;;;10.00
68510;BMP180;55512;50.102;19.958;2023-04-01T04:50:42;97010.60;;;10.04
68510;BMP180;55512;50.102;19.958;2023-04-01T04:53:12;97014.20;;;10.08
68510;BMP180;55512;50.102;19.958;2023-04-01T04:55:43;97016.40;;;10.10
68510;BMP180;55512;50.102;19.958;2023-04-01T04:58:09;97016.20;;;10.10
68510;BMP180;55512;50.102;19.958;2023-04-01T05:00:35;97011.60;;;10.10
68510;BMP180;55512;50.102;19.958;2023-04-01T05:03:00;97016.20;;;10.10
68510;BMP180;55512;50.102;19.958;2023-04-01T05:05:26;97010.40;;;10.10
68510;BMP180;55512;50.102;19.958;2023-04-01T05:07:51;97013.00;;;10.10
68510;BMP180;55512;50.102;19.958;2023-04-01T05:10:17;97012.00;;;10.18
68510;BMP180;55512;50.102;19.958;2023-04-01T05:12:42;97016.80;;;10.20
68510;BMP180;55512;50.102;19.958;2023-04-01T05:15:08;97018.40;;;10.20
68510;BMP180;55512;50.102;19.958;2023-04-01T05:17:34;97021.20;;;10.20
68510;BMP180;55512;50.102;19.958;2023-04-01T05:19:59;97022.40;;;10.28
68510;BMP180;55512;50.102;19.958;2023-04-01T05:22:25;97027.80;;;10.30
68510;BMP180;55512;50.102;19.958;2023-04-01T05:24:51;97027.60;;;10.30
68510;BMP180;55512;50.102;19.958;2023-04-01T05:27:16;97022.20;;;10.30
68510;BMP180;55512;50.102;19.958;2023-04-01T05:29:42;97022.00;;;10.38
68510;BMP180;55512;50.102;19.958;2023-04-01T05:32:07;97020.60;;;10.40
68510;BMP180;55512;50.102;19.958;2023-04-01T05:34:33;97020.60;;;10.40
68510;BMP180;55512;50.102;19.958;2023-04-01T05:36:58;97018.60;;;10.40
68510;BMP180;55512;50.102;19.958;2023-04-01T05:39:24;97017.00;;;10.50
68510;BMP180;55512;50.102;19.958;2023-04-01T05:41:49;97009.60;;;10.50
68510;BMP180;55512;50.102;19.958;2023-04-01T05:44:15;97007.00;;;10.50
68510;BMP180;55512;50.102;19.958;2023-04-01T05:46:41;97005.80;;;10.50
68510;BMP180;55512;50.102;19.958;2023-04-01T05:49:07;97011.40;;;10.60
68510;BMP180;55512;50.102;19.958;2023-04-01T05:51:32;97013.00;;;10.60
68510;BMP180;55512;50.102;19.958;2023-04-01T05:53:58;97013.20;;;10.60
68510;BMP180;55512;50.102;19.958;2023-04-01T05:56:23;97016.20;;;10.60
68510;BMP180;55512;50.102;19.958;2023-04-01T05:58:52;97017.40;;;10.70
68510;BMP180;55512;50.102;19.958;2023-04-01T06:01:19;97014.60;;;10.70
68510;BMP180;55512;50.102;19.958;2023-04-01T06:03:44;97014.80;;;10.70
68510;BMP180;55512;50.102;19.958;2023-04-01T06:06:34;97017.60;;;10.70
68510;BMP180;55512;50.102;19.958;2023-04-01T06:09:27;97016.20;;;10.80
68510;BMP180;55512;50.102;19.958;2023-04-01T06:23:51;97021.80;;;11.00
68510;BMP180;55512;50.102;19.958;2023-04-01T06:29:44;97026.80;;;11.00
68510;BMP180;55512;50.102;19.958;2023-04-01T06:36:42;97026.80;;;11.04
68510;BMP180;55512;50.102;19.958;2023-04-01T06:38:48;97024.60;;;11.10
68510;BMP180;55512;50.102;19.958;2023-04-01T06:41:38;97027.20;;;11.10
68510;BMP180;55512;50.102;19.958;2023-04-01T06:44:45;97039.80;;;11.10
68510;BMP180;55512;50.102;19.958;2023-04-01T06:47:37;97040.40;;;11.00
68510;BMP180;55512;50.102;19.958;2023-04-01T06:50:28;97033.40;;;11.00
68510;BMP180;55512;50.102;19.958;2023-04-01T06:55:47;97035.80;;;11.04
68510;BMP180;55512;50.102;19.958;2023-04-01T06:58:25;97037.60;;;11.10
68510;BMP180;55512;50.102;19.958;2023-04-01T07:00:58;97040.40;;;11.20
68510;BMP180;55512;50.102;19.958;2023-04-01T07:03:43;97040.60;;;11.26
68510;BMP180;55512;50.102;19.958;2023-04-01T07:06:30;97033.40;;;11.30
68510;BMP180;55512;50.102;19.958;2023-04-01T07:09:03;97036.60;;;11.30
68510;BMP180;55512;50.102;19.958;2023-04-01T07:11:37;97029.20;;;11.30
68510;BMP180;55512;50.102;19.958;2023-04-01T07:14:27;97031.80;;;11.40
68510;BMP180;55512;50.102;19.958;2023-04-01T07:17:09;97037.00;;;11.40
68510;BMP180;55512;50.102;19.958;2023-04-01T07:19:44;97033.80;;;11.44
68510;BMP180;55512;50.102;19.958;2023-04-01T07:25:14;97034.40;;;11.60
68510;BMP180;55512;50.102;19.958;2023-04-01T07:27:42;97031.20;;;11.62
68510;BMP180;55512;50.102;19.958;2023-04-01T07:30:15;97037.60;;;11.70
68510;BMP180;55512;50.102;19.958;2023-04-01T07:33:02;97034.40;;;11.74
68510;BMP180;55512;50.102;19.958;2023-04-01T07:38:32;97031.60;;;11.90
68510;BMP180;55512;50.102;19.958;2023-04-01T07:47:01;97034.20;;;11.90
68510;BMP180;55512;50.102;19.958;2023-04-01T07:52:32;97032.20;;;12.00
68510;BMP180;55512;50.102;19.958;2023-04-01T07:55:20;97035.40;;;12.00
68510;BMP180;55512;50.102;19.958;2023-04-01T07:58:42;97031.60;;;12.00
68510;BMP180;55512;50.102;19.958;2023-04-01T08:01:39;97041.00;;;12.10
68510;BMP180;55512;50.102;19.958;2023-04-01T08:15:25;97044.20;;;12.50
68510;BMP180;55512;50.102;19.958;2023-04-01T08:18:04;97044.40;;;12.56
68510;BMP180;55512;50.102;19.958;2023-04-01T08:23:33;97048.60;;;12.70
68510;BMP180;55512;50.102;19.958;2023-04-01T08:26:37;97047.80;;;12.80
68510;BMP180;55512;50.102;19.958;2023-04-01T08:29:20;97050.20;;;12.80
68510;BMP180;55512;50.102;19.958;2023-04-01T08:31:59;97044.80;;;12.90
68510;BMP180;55512;50.102;19.958;2023-04-01T08:34:38;97050.40;;;12.92
68510;BMP180;55512;50.102;19.958;2023-04-01T08:37:39;97050.60;;;12.98
68510;BMP180;55512;50.102;19.958;2023-04-01T08:47:24;97046.00;;;12.90
68510;BMP180;55512;50.102;19.958;2023-04-01T08:50:26;97043.80;;;13.00
68510;BMP180;55512;50.102;19.958;2023-04-01T08:55:51;97041.60;;;13.16
68510;BMP180;55512;50.102;19.958;2023-04-01T09:10:25;97042.40;;;13.50
68510;BMP180;55512;50.102;19.958;2023-04-01T09:19:51;97051.40;;;13.56
68510;BMP180;55512;50.102;19.958;2023-04-01T09:35:06;97049.60;;;13.36
68510;BMP180;55512;50.102;19.958;2023-04-01T09:38:00;97059.20;;;13.30
68510;BMP180;55512;50.102;19.958;2023-04-01T09:44:09;97052.20;;;13.20
68510;BMP180;55512;50.102;19.958;2023-04-01T09:50:35;97057.60;;;13.00
68510;BMP180;55512;50.102;19.958;2023-04-01T09:53:14;97063.00;;;13.00
68510;BMP180;55512;50.102;19.958;2023-04-01T09:56:23;97061.60;;;12.90
68510;BMP180;55512;50.102;19.958;2023-04-01T09:59:15;97063.20;;;12.90
68510;BMP180;55512;50.102;19.958;2023-04-01T10:03:01;97064.00;;;12.90
68510;BMP180;55512;50.102;19.958;2023-04-01T10:05:09;97068.00;;;12.80
68510;BMP180;55512;50.102;19.958;2023-04-01T10:07:59;97066.40;;;12.82
68510;BMP180;55512;50.102;19.958;2023-04-01T10:19:56;97099.60;;;12.90
68510;BMP180;55512;50.102;19.958;2023-04-01T10:26:07;97095.00;;;12.70
68510;BMP180;55512;50.102;19.958;2023-04-01T10:56:34;97076.40;;;13.50
68510;BMP180;55512;50.102;19.958;2023-04-01T10:59:15;97076.60;;;13.60
68510;BMP180;55512;50.102;19.958;2023-04-01T11:02:01;97083.80;;;13.60
68510;BMP180;55512;50.102;19.958;2023-04-01T11:11:44;97085.80;;;13.50
68510;BMP180;55512;50.102;19.958;2023-04-01T11:14:35;97087.00;;;13.60
68510;BMP180;55512;50.102;19.958;2023-04-01T11:31:47;97079.60;;;13.90
68510;BMP180;55512;50.102;19.958;2023-04-01T11:34:53;97084.20;;;13.80
68510;BMP180;55512;50.102;19.958;2023-04-01T11:41:01;97100.20;;;13.50
68510;BMP180;55512;50.102;19.958;2023-04-01T11:49:33;97102.20;;;13.20
68510;BMP180;55512;50.102;19.958;2023-04-01T12:12:36;97087.60;;;14.10
68510;BMP180;55512;50.102;19.958;2023-04-01T12:15:23;97082.60;;;14.20
68510;BMP180;55512;50.102;19.958;2023-04-01T12:20:57;97098.60;;;14.14
68510;BMP180;55512;50.102;19.958;2023-04-01T12:32:44;97095.00;;;13.90
68510;BMP180;55512;50.102;19.958;2023-04-01T12:50:44;97109.40;;;13.70
68510;BMP180;55512;50.102;19.958;2023-04-01T12:55:52;97103.80;;;13.70
68510;BMP180;55512;50.102;19.958;2023-04-01T12:58:46;97108.20;;;13.80
68510;BMP180;55512;50.102;19.958;2023-04-01T13:01:30;97107.20;;;13.96
68510;BMP180;55512;50.102;19.958;2023-04-01T13:19:04;97117.20;;;14.70
68510;BMP180;55512;50.102;19.958;2023-04-01T13:24:36;97118.00;;;14.60
68510;BMP180;55512;50.102;19.958;2023-04-01T13:27:44;97118.80;;;14.50
68510;BMP180;55512;50.102;19.958;2023-04-01T13:30:33;97129.40;;;14.40
68510;BMP180;55512;50.102;19.958;2023-04-01T13:33:25;97126.80;;;14.34
68510;BMP180;55512;50.102;19.958;2023-04-01T13:36:39;97130.60;;;14.30
68510;BMP180;55512;50.102;19.958;2023-04-01T13:39:34;97134.40;;;14.30
68510;BMP180;55512;50.102;19.958;2023-04-01T13:42:28;97141.20;;;14.20
68510;BMP180;55512;50.102;19.958;2023-04-01T13:45:25;97138.20;;;14.14
68510;BMP180;55512;50.102;19.958;2023-04-01T13:51:19;97145.80;;;13.92
68510;BMP180;55512;50.102;19.958;2023-04-01T14:05:39;97125.80;;;14.50
68510;BMP180;55512;50.102;19.958;2023-04-01T14:08:33;97124.60;;;14.62
68510;BMP180;55512;50.102;19.958;2023-04-01T14:11:06;97124.20;;;14.80
68510;BMP180;55512;50.102;19.958;2023-04-01T14:31:43;97133.40;;;21.38
68510;BMP180;55512;50.102;19.958;2023-04-01T14:41:11;97150.40;;;19.68
68510;BMP180;55512;50.102;19.958;2023-04-01T14:49:46;97161.20;;;18.32
68510;BMP180;55512;50.102;19.958;2023-04-01T14:52:27;97161.40;;;17.80
68510;BMP180;55512;50.102;19.958;2023-04-01T14:54:54;97160.80;;;17.30
68510;BMP180;55512;50.102;19.958;2023-04-01T14:57:30;97167.80;;;17.00
68510;BMP180;55512;50.102;19.958;2023-04-01T15:00:18;97164.00;;;16.64
68510;BMP180;55512;50.102;19.958;2023-04-01T15:03:08;97162.80;;;16.30
68510;BMP180;55512;50.102;19.958;2023-04-01T15:08:22;97160.20;;;15.70
68510;BMP180;55512;50.102;19.958;2023-04-01T15:11:17;97161.80;;;15.44
68510;BMP180;55512;50.102;19.958;2023-04-01T15:14:15;97161.60;;;15.20
68510;BMP180;55512;50.102;19.958;2023-04-01T15:35:03;97193.40;;;13.70
68510;BMP180;55512;50.102;19.958;2023-04-01T15:37:51;97200.60;;;13.40
68510;BMP180;55512;50.102;19.958;2023-04-01T15:40:41;97197.20;;;13.20
68510;BMP180;55512;50.102;19.958;2023-04-01T15:43:47;97199.60;;;13.10
68510;BMP180;55512;50.102;19.958;2023-04-01T15:46:48;97203.20;;;13.00
68510;BMP180;55512;50.102;19.958;2023-04-01T15:51:56;97212.40;;;12.80
68510;BMP180;55512;50.102;19.958;2023-04-01T15:58:20;97216.80;;;12.60
68510;BMP180;55512;50.102;19.958;2023-04-01T16:14:07;97226.00;;;12.10
68510;BMP180;55512;50.102;19.958;2023-04-01T16:19:53;97226.00;;;12.00
68510;BMP180;55512;50.102;19.958;2023-04-01T16:22:31;97227.60;;;11.90
68510;BMP180;55512;50.102;19.958;2023-04-01T16:28:09;97227.20;;;11.90
68510;BMP180;55512;50.102;19.958;2023-04-01T16:30:57;97229.00;;;11.86
68510;BMP180;55512;50.102;19.958;2023-04-01T16:37:04;97232.00;;;11.70
68510;BMP180;55512;50.102;19.958;2023-04-01T16:40:52;97238.80;;;11.70
68510;BMP180;55512;50.102;19.958;2023-04-01T16:43:41;97241.40;;;11.70
68510;BMP180;55512;50.102;19.958;2023-04-01T17:02:16;97264.80;;;11.60
68510;BMP180;55512;50.102;19.958;2023-04-01T17:04:48;97269.80;;;11.60
68510;BMP180;55512;50.102;19.958;2023-04-01T17:10:51;97278.80;;;11.60
68510;BMP180;55512;50.102;19.958;2023-04-01T17:22:55;97291.60;;;11.42
68510;BMP180;55512;50.102;19.958;2023-04-01T17:28:29;97298.60;;;11.40
68510;BMP180;55512;50.102;19.958;2023-04-01T17:31:26;97301.40;;;11.40
68510;BMP180;55512;50.102;19.958;2023-04-01T17:34:10;97300.60;;;11.34
68510;BMP180;55512;50.102;19.958;2023-04-01T17:37:20;97308.80;;;11.30
68510;BMP180;55512;50.102;19.958;2023-04-01T17:43:22;97312.60;;;11.20
68510;BMP180;55512;50.102;19.958;2023-04-01T17:45:58;97311.80;;;11.20
68510;BMP180;55512;50.102;19.958;2023-04-01T17:48:38;97316.60;;;11.20
68510;BMP180;55512;50.102;19.958;2023-04-01T17:51:22;97320.00;;;11.18
68510;BMP180;55512;50.102;19.958;2023-04-01T17:54:22;97325.60;;;11.18
68510;BMP180;55512;50.102;19.958;2023-04-01T17:59:39;97332.40;;;11.20
68510;BMP180;55512;50.102;19.958;2023-04-01T18:02:21;97333.60;;;11.14
68510;BMP180;55512;50.102;19.958;2023-04-01T18:05:22;97335.00;;;11.10
68510;BMP180;55512;50.102;19.958;2023-04-01T18:11:39;97338.80;;;11.10
68510;BMP180;55512;50.102;19.958;2023-04-01T18:14:46;97340.40;;;11.10
68510;BMP180;55512;50.102;19.958;2023-04-01T18:17:27;97348.00;;;11.06
68510;BMP180;55512;50.102;19.958;2023-04-01T18:23:21;97348.00;;;11.00
68510;BMP180;55512;50.102;19.958;2023-04-01T18:26:06;97352.60;;;10.90
68510;BMP180;55512;50.102;19.958;2023-04-01T18:28:42;97351.20;;;10.90
68510;BMP180;55512;50.102;19.958;2023-04-01T18:31:19;97353.60;;;10.90
68510;BMP180;55512;50.102;19.958;2023-04-01T18:34:07;97355.60;;;10.90
68510;BMP180;55512;50.102;19.958;2023-04-01T18:37:04;97362.00;;;10.90
68510;BMP180;55512;50.102;19.958;2023-04-01T18:39:42;97360.80;;;10.88
68510;BMP180;55512;50.102;19.958;2023-04-01T18:42:31;97363.20;;;10.82
68510;BMP180;55512;50.102;19.958;2023-04-01T18:48:43;97373.20;;;10.80
68510;BMP180;55512;50.102;19.958;2023-04-01T18:54:06;97376.40;;;10.80
68510;BMP180;55512;50.102;19.958;2023-04-01T18:56:38;97379.60;;;10.80
68510;BMP180;55512;50.102;19.958;2023-04-01T18:59:25;97384.00;;;10.80
68510;BMP180;55512;50.102;19.958;2023-04-01T19:05:18;97384.20;;;10.80
68510;BMP180;55512;50.102;19.958;2023-04-01T19:07:56;97387.80;;;10.80
68510;BMP180;55512;50.102;19.958;2023-04-01T19:11:43;97389.20;;;10.72
68510;BMP180;55512;50.102;19.958;2023-04-01T19:17:16;97396.60;;;10.74
68510;BMP180;55512;50.102;19.958;2023-04-01T19:20:46;97402.80;;;10.70
68510;BMP180;55512;50.102;19.958;2023-04-01T19:26:09;97402.60;;;10.70
68510;BMP180;55512;50.102;19.958;2023-04-01T19:29:12;97407.20;;;10.70
68510;BMP180;55512;50.102;19.958;2023-04-01T19:32:43;97416.60;;;10.70
68510;BMP180;55512;50.102;19.958;2023-04-01T19:40:42;97427.20;;;10.70
68510;BMP180;55512;50.102;19.958;2023-04-01T19:46:20;97429.80;;;10.60
68510;BMP180;55512;50.102;19.958;2023-04-01T19:52:35;97437.00;;;10.52
68510;BMP180;55512;50.102;19.958;2023-04-01T19:55:37;97438.20;;;10.50
68510;BMP180;55512;50.102;19.958;2023-04-01T20:01:59;97441.20;;;10.50
68510;BMP180;55512;50.102;19.958;2023-04-01T20:04:38;97445.60;;;10.50
68510;BMP180;55512;50.102;19.958;2023-04-01T20:07:17;97444.40;;;10.40
68510;BMP180;55512;50.102;19.958;2023-04-01T20:10:12;97446.40;;;10.40
68510;BMP180;55512;50.102;19.958;2023-04-01T20:13:00;97449.40;;;10.40
68510;BMP180;55512;50.102;19.958;2023-04-01T20:15:39;97451.20;;;10.40
68510;BMP180;55512;50.102;19.958;2023-04-01T20:18:16;97457.20;;;10.40
68510;BMP180;55512;50.102;19.958;2023-04-01T20:21:00;97460.60;;;10.40
68510;BMP180;55512;50.102;19.958;2023-04-01T20:23:41;97461.80;;;10.40
68510;BMP180;55512;50.102;19.958;2023-04-01T20:26:11;97463.20;;;10.40
68510;BMP180;55512;50.102;19.958;2023-04-01T20:31:42;97471.60;;;10.40
68510;BMP180;55512;50.102;19.958;2023-04-01T20:34:29;97468.60;;;10.40
68510;BMP180;55512;50.102;19.958;2023-04-01T20:39:47;97472.00;;;10.40
68510;BMP180;55512;50.102;19.958;2023-04-01T20:45:35;97475.00;;;10.40
68510;BMP180;55512;50.102;19.958;2023-04-01T20:51:30;97474.00;;;10.40
68510;BMP180;55512;50.102;19.958;2023-04-01T20:54:24;97481.80;;;10.40
68510;BMP180;55512;50.102;19.958;2023-04-01T20:57:16;97478.80;;;10.40
68510;BMP180;55512;50.102;19.958;2023-04-01T21:00:16;97482.20;;;10.40
68510;BMP180;55512;50.102;19.958;2023-04-01T21:02:48;97485.40;;;10.32
68510;BMP180;55512;50.102;19.958;2023-04-01T21:09:26;97492.40;;;10.30
68510;BMP180;55512;50.102;19.958;2023-04-01T21:27:09;97514.40;;;10.20
68510;BMP180;55512;50.102;19.958;2023-04-01T21:35:41;97515.60;;;10.20
68510;BMP180;55512;50.102;19.958;2023-04-01T21:45:02;97522.00;;;10.24
68510;BMP180;55512;50.102;19.958;2023-04-01T22:09:39;97534.40;;;10.20
68510;BMP180;55512;50.102;19.958;2023-04-01T22:12:50;97534.20;;;10.20
68510;BMP180;55512;50.102;19.958;2023-04-01T22:19:02;97534.20;;;10.20
68510;BMP180;55512;50.102;19.958;2023-04-01T22:21:56;97538.00;;;10.20
68510;BMP180;55512;50.102;19.958;2023-04-01T22:25:02;97543.40;;;10.20
68510;BMP180;55512;50.102;19.958;2023-04-01T22:27:49;97544.20;;;10.20
68510;BMP180;55512;50.102;19.958;2023-04-01T22:30:25;97547.00;;;10.20
68510;BMP180;55512;50.102;19.958;2023-04-01T22:33:07;97541.80;;;10.20
68510;BMP180;55512;50.102;19.958;2023-04-01T22:36:09;97544.40;;;10.14
68510;BMP180;55512;50.102;19.958;2023-04-01T22:42:10;97547.40;;;10.10
68510;BMP180;55512;50.102;19.958;2023-04-01T22:45:10;97550.00;;;10.10
68510;BMP180;55512;50.102;19.958;2023-04-01T22:55:42;97557.40;;;10.06
68510;BMP180;55512;50.102;19.958;2023-04-01T22:58:15;97561.60;;;10.00
68510;BMP180;55512;50.102;19.958;2023-04-01T23:00:52;97561.20;;;10.00
68510;BMP180;55512;50.102;19.958;2023-04-01T23:03:28;97562.60;;;10.00
68510;BMP180;55512;50.102;19.958;2023-04-01T23:05:59;97565.60;;;10.00
68510;BMP180;55512;50.102;19.958;2023-04-01T23:10:56;97568.60;;;10.00
68510;BMP180;55512;50.102;19.958;2023-04-01T23:13:31;97575.00;;;9.96
68510;BMP180;55512;50.102;19.958;2023-04-01T23:16:00;97576.00;;;9.90
68510;BMP180;55512;50.102;19.958;2023-04-01T23:19:32;97576.60;;;9.90
68510;BMP180;55512;50.102;19.958;2023-04-01T23:22:16;97579.40;;;9.84
68510;BMP180;55512;50.102;19.958;2023-04-01T23:27:50;97578.20;;;9.88